sensor_id;sensor_type;location;lat;lon;timestamp;P1;durP1;ratioP1;P2;durP2;ratioP2
31730;SDS011;18310;55.586;12.286;2022-10-16T00:01:38;12.77;;;7.97;;
31730;SDS011;18310;55.586;12.286;2022-10-16T00:04:42;12.88;;;8.45;;
31730;SDS011;18310;55.586;12.286;2022-10-16T00:07:45;13.10;;;8.17;;
31730;SDS011;18310;55.586;12.286;2022-10-16T00:10:50;13.70;;;8.30;;
31730;SDS011;18310;55.586;12.286;2022-10-16T00:13:55;10.85;;;7.75;;
31730;SDS011;18310;55.586;12.286;2022-10-16T00:17:01;12.13;;;8.23;;
31730;SDS011;18310;55.586;12.286;2022-10-16T00:20:04;11.98;;;8.52;;
31730;SDS011;18310;55.586;12.286;2022-10-16T00:23:10;11.68;;;8.07;;
31730;SDS011;18310;55.586;12.286;2022-10-16T00:26:17;13.07;;;8.05;;
31730;SDS011;18310;55.586;12.286;2022-10-16T00:29:21;11.57;;;8.30;;
31730;SDS011;18310;55.586;12.286;2022-10-16T00:32:24;11.63;;;8.30;;
31730;SDS011;18310;55.586;12.286;2022-10-16T00:35:30;18.67;;;8.02;;
31730;SDS011;18310;55.586;12.286;2022-10-16T00:38:34;13.90;;;8.70;;
31730;SDS011;18310;55.586;12.286;2022-10-16T00:41:41;10.57;;;7.15;;
31730;SDS011;18310;55.586;12.286;2022-10-16T00:44:46;12.40;;;8.20;;
31730;SDS011;18310;55.586;12.286;2022-10-16T00:47:55;11.85;;;7.30;;
31730;SDS011;18310;55.586;12.286;2022-10-16T00:50:59;10.35;;;6.82;;
31730;SDS011;18310;55.586;12.286;2022-10-16T00:54:06;15.02;;;7.32;;
31730;SDS011;18310;55.586;12.286;2022-10-16T00:57:16;11.13;;;7.15;;
31730;SDS011;18310;55.586;12.286;2022-10-16T01:00:22;11.70;;;7.40;;
31730;SDS011;18310;55.586;12.286;2022-10-16T01:03:30;11.60;;;7.75;;
31730;SDS011;18310;55.586;12.286;2022-10-16T01:06:46;12.27;;;7.22;;
31730;SDS011;18310;55.586;12.286;2022-10-16T01:10:02;11.30;;;7.13;;
31730;SDS011;18310;55.586;12.286;2022-10-16T01:13:23;11.98;;;7.35;;
31730;SDS011;18310;55.586;12.286;2022-10-16T01:16:34;14.32;;;7.63;;
31730;SDS011;18310;55.586;12.286;2022-10-16T01:23:21;11.98;;;7.60;;
31730;SDS011;18310;55.586;12.286;2022-10-16T01:26:47;14.77;;;7.13;;
31730;SDS011;18310;55.586;12.286;2022-10-16T01:30:09;12.35;;;7.18;;
31730;SDS011;18310;55.586;12.286;2022-10-16T01:33:19;10.07;;;7.13;;
31730;SDS011;18310;55.586;12.286;2022-10-16T01:36:29;10.85;;;7.40;;
31730;SDS011;18310;55.586;12.286;2022-10-16T01:39:42;10.93;;;6.93;;
31730;SDS011;18310;55.586;12.286;2022-10-16T01:42:54;12.45;;;7.60;;
31730;SDS011;18310;55.586;12.286;2022-10-16T01:46:03;15.27;;;8.40;;
31730;SDS011;18310;55.586;12.286;2022-10-16T01:49:07;13.70;;;8.00;;
31730;SDS011;18310;55.586;12.286;2022-10-16T01:52:18;12.45;;;7.95;;
31730;SDS011;18310;55.586;12.286;2022-10-16T01:55:28;13.70;;;7.65;;
31730;SDS011;18310;55.586;12.286;2022-10-16T01:58:41;11.75;;;7.75;;
31730;SDS011;18310;55.586;12.286;2022-10-16T02:01:50;13.48;;;8.10;;
31730;SDS011;18310;55.586;12.286;2022-10-16T02:05:03;13.30;;;8.07;;
31730;SDS011;18310;55.586;12.286;2022-10-16T02:08:18;12.20;;;8.07;;
31730;SDS011;18310;55.586;12.286;2022-10-16T02:11:23;17.17;;;7.65;;
31730;SDS011;18310;55.586;12.286;2022-10-16T02:14:27;12.83;;;8.57;;
31730;SDS011;18310;55.586;12.286;2022-10-16T02:17:32;19.35;;;8.77;;
31730;SDS011;18310;55.586;12.286;2022-10-16T02:20:39;14.13;;;8.45;;
31730;SDS011;18310;55.586;12.286;2022-10-16T02:24:02;14.30;;;7.72;;
31730;SDS011;18310;55.586;12.286;2022-10-16T02:27:16;16.60;;;8.20;;
31730;SDS011;18310;55.586;12.286;2022-10-16T02:30:30;12.82;;;6.95;;
31730;SDS011;18310;55.586;12.286;2022-10-16T02:33:40;10.70;;;6.63;;
31730;SDS011;18310;55.586;12.286;2022-10-16T02:36:48;12.77;;;6.97;;
31730;SDS011;18310;55.586;12.286;2022-10-16T02:39:55;12.73;;;6.78;;
31730;SDS011;18310;55.586;12.286;2022-10-16T02:43:00;10.80;;;6.70;;
31730;SDS011;18310;55.586;12.286;2022-10-16T02:46:10;12.05;;;6.82;;
31730;SDS011;18310;55.586;12.286;2022-10-16T02:49:14;10.15;;;5.85;;
31730;SDS011;18310;55.586;12.286;2022-10-16T02:52:19;12.57;;;6.25;;
31730;SDS011;18310;55.586;12.286;2022-10-16T02:55:25;11.88;;;6.28;;
31730;SDS011;18310;55.586;12.286;2022-10-16T02:58:30;13.10;;;6.45;;
31730;SDS011;18310;55.586;12.286;2022-10-16T03:01:36;10.27;;;5.88;;
31730;SDS011;18310;55.586;12.286;2022-10-16T03:04:39;10.38;;;6.35;;
31730;SDS011;18310;55.586;12.286;2022-10-16T03:07:42;9.73;;;6.20;;
31730;SDS011;18310;55.586;12.286;2022-10-16T03:10:45;10.85;;;5.70;;
31730;SDS011;18310;55.586;12.286;2022-10-16T03:13:50;8.23;;;5.00;;
31730;SDS011;18310;55.586;12.286;2022-10-16T03:16:55;13.38;;;5.28;;
31730;SDS011;18310;55.586;12.286;2022-10-16T03:19:59;12.48;;;5.30;;
31730;SDS011;18310;55.586;12.286;2022-10-16T03:23:02;10.18;;;5.20;;
31730;SDS011;18310;55.586;12.286;2022-10-16T03:26:05;7.72;;;4.10;;
31730;SDS011;18310;55.586;12.286;2022-10-16T03:29:08;11.87;;;4.90;;
31730;SDS011;18310;55.586;12.286;2022-10-16T03:32:14;11.52;;;4.53;;
31730;SDS011;18310;55.586;12.286;2022-10-16T03:35:19;8.10;;;4.45;;
31730;SDS011;18310;55.586;12.286;2022-10-16T03:38:22;9.25;;;4.82;;
31730;SDS011;18310;55.586;12.286;2022-10-16T03:41:25;11.90;;;3.97;;
31730;SDS011;18310;55.586;12.286;2022-10-16T03:47:36;7.22;;;3.60;;
31730;SDS011;18310;55.586;12.286;2022-10-16T03:50:40;8.80;;;4.13;;
31730;SDS011;18310;55.586;12.286;2022-10-16T03:53:43;9.10;;;3.83;;
31730;SDS011;18310;55.586;12.286;2022-10-16T03:56:47;6.22;;;3.58;;
31730;SDS011;18310;55.586;12.286;2022-10-16T03:59:51;6.80;;;3.92;;
31730;SDS011;18310;55.586;12.286;2022-10-16T04:02:55;7.70;;;3.50;;
31730;SDS011;18310;55.586;12.286;2022-10-16T04:05:58;10.55;;;4.05;;
31730;SDS011;18310;55.586;12.286;2022-10-16T04:12:07;13.38;;;4.40;;
31730;SDS011;18310;55.586;12.286;2022-10-16T04:15:10;9.82;;;4.38;;
31730;SDS011;18310;55.586;12.286;2022-10-16T04:18:15;8.13;;;4.20;;
31730;SDS011;18310;55.586;12.286;2022-10-16T04:21:20;8.35;;;4.43;;
31730;SDS011;18310;55.586;12.286;2022-10-16T04:24:23;7.97;;;3.65;;
31730;SDS011;18310;55.586;12.286;2022-10-16T04:27:27;10.23;;;4.25;;
31730;SDS011;18310;55.586;12.286;2022-10-16T04:30:32;12.18;;;4.03;;
31730;SDS011;18310;55.586;12.286;2022-10-16T04:33:37;8.38;;;3.75;;
31730;SDS011;18310;55.586;12.286;2022-10-16T04:36:42;9.90;;;3.88;;
31730;SDS011;18310;55.586;12.286;2022-10-16T04:39:46;7.80;;;3.55;;
31730;SDS011;18310;55.586;12.286;2022-10-16T04:42:51;8.70;;;3.67;;
31730;SDS011;18310;55.586;12.286;2022-10-16T04:45:54;11.00;;;4.03;;
31730;SDS011;18310;55.586;12.286;2022-10-16T04:48:59;9.98;;;3.40;;
31730;SDS011;18310;55.586;12.286;2022-10-16T04:52:02;9.20;;;3.95;;
31730;SDS011;18310;55.586;12.286;2022-10-16T04:55:06;10.50;;;3.55;;
31730;SDS011;18310;55.586;12.286;2022-10-16T04:58:11;9.13;;;3.55;;
31730;SDS011;18310;55.586;12.286;2022-10-16T05:01:17;7.07;;;3.30;;
31730;SDS011;18310;55.586;12.286;2022-10-16T05:04:23;9.47;;;3.27;;
31730;SDS011;18310;55.586;12.286;2022-10-16T05:07:26;8.85;;;3.20;;
31730;SDS011;18310;55.586;12.286;2022-10-16T05:10:29;7.50;;;3.33;;
31730;SDS011;18310;55.586;12.286;2022-10-16T05:13:32;7.47;;;2.83;;
31730;SDS011;18310;55.586;12.286;2022-10-16T05:16:37;5.35;;;2.67;;
31730;SDS011;18310;55.586;12.286;2022-10-16T05:19:42;8.25;;;3.28;;
31730;SDS011;18310;55.586;12.286;2022-10-16T05:22:47;9.50;;;3.20;;
31730;SDS011;18310;55.586;12.286;2022-10-16T05:25:53;6.93;;;2.80;;
31730;SDS011;18310;55.586;12.286;2022-10-16T05:29:00;8.63;;;3.30;;
31730;SDS011;18310;55.586;12.286;2022-10-16T05:32:04;8.15;;;2.63;;
31730;SDS011;18310;55.586;12.286;2022-10-16T05:35:09;7.70;;;2.65;;
31730;SDS011;18310;55.586;12.286;2022-10-16T05:38:13;5.70;;;3.30;;
31730;SDS011;18310;55.586;12.286;2022-10-16T05:41:18;7.13;;;3.17;;
31730;SDS011;18310;55.586;12.286;2022-10-16T05:44:22;7.57;;;3.15;;
31730;SDS011;18310;55.586;12.286;2022-10-16T05:47:26;5.68;;;2.70;;
31730;SDS011;18310;55.586;12.286;2022-10-16T05:50:37;8.98;;;3.28;;
31730;SDS011;18310;55.586;12.286;2022-10-16T05:53:42;9.13;;;3.20;;
31730;SDS011;18310;55.586;12.286;2022-10-16T05:59:49;8.40;;;3.20;;
31730;SDS011;18310;55.586;12.286;2022-10-16T06:05:58;7.03;;;2.70;;
31730;SDS011;18310;55.586;12.286;2022-10-16T06:09:12;5.43;;;2.67;;
31730;SDS011;18310;55.586;12.286;2022-10-16T06:12:16;7.90;;;3.13;;
31730;SDS011;18310;55.586;12.286;2022-10-16T06:18:23;5.88;;;3.05;;
31730;SDS011;18310;55.586;12.286;2022-10-16T06:21:28;8.88;;;3.28;;
31730;SDS011;18310;55.586;12.286;2022-10-16T06:24:32;8.20;;;3.38;;
31730;SDS011;18310;55.586;12.286;2022-10-16T06:27:38;6.65;;;3.58;;
31730;SDS011;18310;55.586;12.286;2022-10-16T06:30:41;7.05;;;3.55;;
31730;SDS011;18310;55.586;12.286;2022-10-16T06:33:45;7.82;;;3.10;;
31730;SDS011;18310;55.586;12.286;2022-10-16T06:36:55;7.13;;;3.05;;
31730;SDS011;18310;55.586;12.286;2022-10-16T06:39:59;7.68;;;2.88;;
31730;SDS011;18310;55.586;12.286;2022-10-16T06:43:02;8.00;;;3.53;;
31730;SDS011;18310;55.586;12.286;2022-10-16T06:46:06;7.70;;;3.78;;
31730;SDS011;18310;55.586;12.286;2022-10-16T06:49:13;8.57;;;2.95;;
31730;SDS011;18310;55.586;12.286;2022-10-16T06:52:26;8.88;;;2.70;;
31730;SDS011;18310;55.586;12.286;2022-10-16T06:55:31;7.78;;;3.03;;
31730;SDS011;18310;55.586;12.286;2022-10-16T06:58:35;5.72;;;2.67;;
31730;SDS011;18310;55.586;12.286;2022-10-16T07:01:40;7.63;;;3.20;;
31730;SDS011;18310;55.586;12.286;2022-10-16T07:04:43;4.85;;;2.45;;
31730;SDS011;18310;55.586;12.286;2022-10-16T07:07:50;8.70;;;3.15;;
31730;SDS011;18310;55.586;12.286;2022-10-16T07:10:57;5.82;;;2.65;;
31730;SDS011;18310;55.586;12.286;2022-10-16T07:14:02;8.32;;;2.78;;
31730;SDS011;18310;55.586;12.286;2022-10-16T07:17:06;10.60;;;2.40;;
31730;SDS011;18310;55.586;12.286;2022-10-16T07:20:09;5.63;;;1.90;;
31730;SDS011;18310;55.586;12.286;2022-10-16T07:23:14;8.45;;;2.72;;
31730;SDS011;18310;55.586;12.286;2022-10-16T07:26:18;8.18;;;2.75;;
31730;SDS011;18310;55.586;12.286;2022-10-16T07:29:22;7.05;;;2.08;;
31730;SDS011;18310;55.586;12.286;2022-10-16T07:32:26;3.55;;;1.83;;
31730;SDS011;18310;55.586;12.286;2022-10-16T07:35:31;5.18;;;2.15;;
31730;SDS011;18310;55.586;12.286;2022-10-16T07:38:36;5.68;;;1.88;;
31730;SDS011;18310;55.586;12.286;2022-10-16T07:41:40;4.05;;;1.83;;
31730;SDS011;18310;55.586;12.286;2022-10-16T07:44:47;5.72;;;1.95;;
31730;SDS011;18310;55.586;12.286;2022-10-16T07:47:51;4.50;;;2.10;;
31730;SDS011;18310;55.586;12.286;2022-10-16T07:50:57;4.30;;;1.77;;
31730;SDS011;18310;55.586;12.286;2022-10-16T07:54:03;5.72;;;1.73;;
31730;SDS011;18310;55.586;12.286;2022-10-16T07:57:06;4.60;;;1.75;;
31730;SDS011;18310;55.586;12.286;2022-10-16T08:00:10;4.43;;;1.60;;
31730;SDS011;18310;55.586;12.286;2022-10-16T08:03:14;5.13;;;1.52;;
31730;SDS011;18310;55.586;12.286;2022-10-16T08:06:19;5.82;;;1.65;;
31730;SDS011;18310;55.586;12.286;2022-10-16T08:09:29;5.38;;;1.15;;
31730;SDS011;18310;55.586;12.286;2022-10-16T08:12:35;4.05;;;1.30;;
31730;SDS011;18310;55.586;12.286;2022-10-16T08:15:39;6.50;;;1.40;;
31730;SDS011;18310;55.586;12.286;2022-10-16T08:18:45;5.57;;;1.60;;
31730;SDS011;18310;55.586;12.286;2022-10-16T08:21:52;4.78;;;1.30;;
31730;SDS011;18310;55.586;12.286;2022-10-16T08:24:57;7.85;;;1.65;;
31730;SDS011;18310;55.586;12.286;2022-10-16T08:28:02;2.83;;;1.10;;
31730;SDS011;18310;55.586;12.286;2022-10-16T08:31:08;3.75;;;0.95;;
31730;SDS011;18310;55.586;12.286;2022-10-16T08:34:15;3.70;;;1.23;;
31730;SDS011;18310;55.586;12.286;2022-10-16T08:37:18;6.50;;;1.25;;
31730;SDS011;18310;55.586;12.286;2022-10-16T08:40:24;3.75;;;0.90;;
31730;SDS011;18310;55.586;12.286;2022-10-16T08:43:33;4.55;;;1.05;;
31730;SDS011;18310;55.586;12.286;2022-10-16T08:46:56;2.53;;;0.90;;
31730;SDS011;18310;55.586;12.286;2022-10-16T08:50:20;6.28;;;1.30;;
31730;SDS011;18310;55.586;12.286;2022-10-16T08:53:30;5.50;;;1.10;;
31730;SDS011;18310;55.586;12.286;2022-10-16T08:56:46;3.10;;;0.82;;
31730;SDS011;18310;55.586;12.286;2022-10-16T08:59:51;2.35;;;0.80;;
31730;SDS011;18310;55.586;12.286;2022-10-16T09:02:58;5.43;;;0.95;;
31730;SDS011;18310;55.586;12.286;2022-10-16T09:06:17;3.50;;;1.00;;
31730;SDS011;18310;55.586;12.286;2022-10-16T09:09:45;6.82;;;0.93;;
31730;SDS011;18310;55.586;12.286;2022-10-16T09:13:10;7.57;;;1.02;;
31730;SDS011;18310;55.586;12.286;2022-10-16T09:16:24;6.45;;;1.15;;
31730;SDS011;18310;55.586;12.286;2022-10-16T09:19:39;3.80;;;1.23;;
31730;SDS011;18310;55.586;12.286;2022-10-16T09:22:48;6.43;;;1.17;;
31730;SDS011;18310;55.586;12.286;2022-10-16T09:25:57;5.28;;;0.90;;
31730;SDS011;18310;55.586;12.286;2022-10-16T09:29:06;5.32;;;1.00;;
31730;SDS011;18310;55.586;12.286;2022-10-16T09:32:14;3.55;;;1.08;;
31730;SDS011;18310;55.586;12.286;2022-10-16T09:35:22;5.05;;;0.80;;
31730;SDS011;18310;55.586;12.286;2022-10-16T09:38:36;4.47;;;0.93;;
31730;SDS011;18310;55.586;12.286;2022-10-16T09:41:40;4.07;;;0.82;;
31730;SDS011;18310;55.586;12.286;2022-10-16T09:44:49;3.30;;;1.00;;
31730;SDS011;18310;55.586;12.286;2022-10-16T09:47:55;2.88;;;0.82;;
31730;SDS011;18310;55.586;12.286;2022-10-16T09:50:59;4.28;;;0.80;;
31730;SDS011;18310;55.586;12.286;2022-10-16T09:54:13;3.03;;;0.57;;
31730;SDS011;18310;55.586;12.286;2022-10-16T09:57:19;3.50;;;0.77;;
31730;SDS011;18310;55.586;12.286;2022-10-16T10:00:26;2.22;;;0.77;;
31730;SDS011;18310;55.586;12.286;2022-10-16T10:03:33;2.67;;;0.88;;
31730;SDS011;18310;55.586;12.286;2022-10-16T10:06:43;2.85;;;0.95;;
31730;SDS011;18310;55.586;12.286;2022-10-16T10:09:50;7.50;;;0.98;;
31730;SDS011;18310;55.586;12.286;2022-10-16T10:12:54;2.93;;;0.93;;
31730;SDS011;18310;55.586;12.286;2022-10-16T10:16:00;2.60;;;0.60;;
31730;SDS011;18310;55.586;12.286;2022-10-16T10:19:03;3.58;;;1.00;;
31730;SDS011;18310;55.586;12.286;2022-10-16T10:22:18;6.53;;;0.98;;
31730;SDS011;18310;55.586;12.286;2022-10-16T10:25:39;3.00;;;0.88;;
31730;SDS011;18310;55.586;12.286;2022-10-16T10:28:58;5.25;;;0.85;;
31730;SDS011;18310;55.586;12.286;2022-10-16T10:32:19;8.05;;;1.13;;
31730;SDS011;18310;55.586;12.286;2022-10-16T10:35:41;7.82;;;1.33;;
31730;SDS011;18310;55.586;12.286;2022-10-16T10:38:54;6.68;;;1.10;;
31730;SDS011;18310;55.586;12.286;2022-10-16T10:42:07;5.25;;;1.30;;
31730;SDS011;18310;55.586;12.286;2022-10-16T10:45:26;3.92;;;0.93;;
31730;SDS011;18310;55.586;12.286;2022-10-16T10:48:54;8.60;;;1.38;;
31730;SDS011;18310;55.586;12.286;2022-10-16T10:52:28;2.88;;;0.70;;
31730;SDS011;18310;55.586;12.286;2022-10-16T10:55:45;4.75;;;1.00;;
31730;SDS011;18310;55.586;12.286;2022-10-16T10:59:02;3.33;;;1.02;;
31730;SDS011;18310;55.586;12.286;2022-10-16T11:02:38;4.40;;;1.00;;
31730;SDS011;18310;55.586;12.286;2022-10-16T11:05:49;4.65;;;1.25;;
31730;SDS011;18310;55.586;12.286;2022-10-16T11:08:59;6.57;;;1.20;;
31730;SDS011;18310;55.586;12.286;2022-10-16T11:12:15;3.47;;;1.13;;
31730;SDS011;18310;55.586;12.286;2022-10-16T11:15:25;5.93;;;0.95;;
31730;SDS011;18310;55.586;12.286;2022-10-16T11:18:40;3.10;;;0.88;;
31730;SDS011;18310;55.586;12.286;2022-10-16T11:21:55;4.50;;;1.20;;
31730;SDS011;18310;55.586;12.286;2022-10-16T11:25:13;4.10;;;0.85;;
31730;SDS011;18310;55.586;12.286;2022-10-16T11:28:24;5.82;;;1.20;;
31730;SDS011;18310;55.586;12.286;2022-10-16T11:31:36;3.28;;;0.90;;
31730;SDS011;18310;55.586;12.286;2022-10-16T11:34:47;5.72;;;1.10;;
31730;SDS011;18310;55.586;12.286;2022-10-16T11:37:58;2.33;;;0.75;;
31730;SDS011;18310;55.586;12.286;2022-10-16T11:41:12;4.43;;;0.80;;
31730;SDS011;18310;55.586;12.286;2022-10-16T11:47:44;11.50;;;1.40;;
31730;SDS011;18310;55.586;12.286;2022-10-16T11:51:02;5.82;;;1.00;;
31730;SDS011;18310;55.586;12.286;2022-10-16T11:54:20;2.20;;;0.68;;
31730;SDS011;18310;55.586;12.286;2022-10-16T11:57:38;7.40;;;1.25;;
31730;SDS011;18310;55.586;12.286;2022-10-16T12:00:51;4.57;;;0.90;;
31730;SDS011;18310;55.586;12.286;2022-10-16T12:07:19;8.77;;;1.40;;
31730;SDS011;18310;55.586;12.286;2022-10-16T12:10:38;5.28;;;1.20;;
31730;SDS011;18310;55.586;12.286;2022-10-16T12:13:44;9.43;;;1.25;;
31730;SDS011;18310;55.586;12.286;2022-10-16T12:16:53;8.48;;;1.13;;
31730;SDS011;18310;55.586;12.286;2022-10-16T12:20:00;5.78;;;1.30;;
31730;SDS011;18310;55.586;12.286;2022-10-16T12:23:27;5.10;;;1.05;;
31730;SDS011;18310;55.586;12.286;2022-10-16T12:26:33;7.80;;;1.55;;
31730;SDS011;18310;55.586;12.286;2022-10-16T12:29:44;6.97;;;1.48;;
31730;SDS011;18310;55.586;12.286;2022-10-16T12:32:52;3.70;;;0.90;;
31730;SDS011;18310;55.586;12.286;2022-10-16T12:35:59;4.70;;;1.00;;
31730;SDS011;18310;55.586;12.286;2022-10-16T12:39:16;4.25;;;0.90;;
31730;SDS011;18310;55.586;12.286;2022-10-16T12:42:34;6.65;;;1.48;;
31730;SDS011;18310;55.586;12.286;2022-10-16T12:45:37;8.07;;;1.50;;
31730;SDS011;18310;55.586;12.286;2022-10-16T12:48:41;7.60;;;1.10;;
31730;SDS011;18310;55.586;12.286;2022-10-16T12:55:31;5.70;;;1.40;;
31730;SDS011;18310;55.586;12.286;2022-10-16T12:58:53;5.80;;;1.23;;
31730;SDS011;18310;55.586;12.286;2022-10-16T13:02:18;9.07;;;1.38;;
31730;SDS011;18310;55.586;12.286;2022-10-16T13:06:04;6.47;;;1.20;;
31730;SDS011;18310;55.586;12.286;2022-10-16T13:09:40;7.35;;;1.25;;
31730;SDS011;18310;55.586;12.286;2022-10-16T13:13:04;5.80;;;1.40;;
31730;SDS011;18310;55.586;12.286;2022-10-16T13:16:45;7.47;;;1.38;;
31730;SDS011;18310;55.586;12.286;2022-10-16T13:20:03;11.57;;;2.08;;
31730;SDS011;18310;55.586;12.286;2022-10-16T13:23:24;6.47;;;1.35;;
31730;SDS011;18310;55.586;12.286;2022-10-16T13:26:39;8.65;;;1.35;;
31730;SDS011;18310;55.586;12.286;2022-10-16T13:29:54;6.80;;;1.50;;
31730;SDS011;18310;55.586;12.286;2022-10-16T13:33:14;6.30;;;1.42;;
31730;SDS011;18310;55.586;12.286;2022-10-16T13:36:25;6.03;;;1.38;;
31730;SDS011;18310;55.586;12.286;2022-10-16T13:39:32;9.63;;;1.95;;
31730;SDS011;18310;55.586;12.286;2022-10-16T13:42:34;4.82;;;1.38;;
31730;SDS011;18310;55.586;12.286;2022-10-16T13:45:39;8.05;;;1.80;;
31730;SDS011;18310;55.586;12.286;2022-10-16T13:48:44;6.43;;;1.30;;
31730;SDS011;18310;55.586;12.286;2022-10-16T13:52:00;10.40;;;1.70;;
31730;SDS011;18310;55.586;12.286;2022-10-16T13:55:03;6.20;;;1.40;;
31730;SDS011;18310;55.586;12.286;2022-10-16T13:58:13;7.13;;;1.27;;
31730;SDS011;18310;55.586;12.286;2022-10-16T14:01:19;7.28;;;1.88;;
31730;SDS011;18310;55.586;12.286;2022-10-16T14:04:34;6.70;;;1.30;;
31730;SDS011;18310;55.586;12.286;2022-10-16T14:07:42;13.88;;;1.80;;
31730;SDS011;18310;55.586;12.286;2022-10-16T14:10:47;8.45;;;1.40;;
31730;SDS011;18310;55.586;12.286;2022-10-16T14:13:54;10.73;;;1.38;;
31730;SDS011;18310;55.586;12.286;2022-10-16T14:17:01;8.32;;;1.27;;
31730;SDS011;18310;55.586;12.286;2022-10-16T14:20:12;4.88;;;1.50;;
31730;SDS011;18310;55.586;12.286;2022-10-16T14:23:20;10.43;;;1.40;;
31730;SDS011;18310;55.586;12.286;2022-10-16T14:26:31;10.20;;;1.30;;
31730;SDS011;18310;55.586;12.286;2022-10-16T14:30:01;9.38;;;2.03;;
31730;SDS011;18310;55.586;12.286;2022-10-16T14:33:23;7.15;;;1.40;;
31730;SDS011;18310;55.586;12.286;2022-10-16T14:36:40;11.98;;;1.42;;
31730;SDS011;18310;55.586;12.286;2022-10-16T14:39:48;8.60;;;1.70;;
31730;SDS011;18310;55.586;12.286;2022-10-16T14:42:52;6.20;;;1.58;;
31730;SDS011;18310;55.586;12.286;2022-10-16T14:45:56;9.55;;;1.88;;
31730;SDS011;18310;55.586;12.286;2022-10-16T14:49:01;16.20;;;2.42;;
31730;SDS011;18310;55.586;12.286;2022-10-16T14:52:19;10.98;;;2.00;;
31730;SDS011;18310;55.586;12.286;2022-10-16T14:55:22;10.88;;;1.88;;
31730;SDS011;18310;55.586;12.286;2022-10-16T14:58:27;8.80;;;1.77;;
31730;SDS011;18310;55.586;12.286;2022-10-16T15:01:33;8.32;;;2.10;;
31730;SDS011;18310;55.586;12.286;2022-10-16T15:04:37;8.90;;;1.67;;
31730;SDS011;18310;55.586;12.286;2022-10-16T15:07:44;8.30;;;1.80;;
31730;SDS011;18310;55.586;12.286;2022-10-16T15:10:48;7.82;;;2.30;;
31730;SDS011;18310;55.586;12.286;2022-10-16T15:13:51;13.15;;;1.80;;
31730;SDS011;18310;55.586;12.286;2022-10-16T15:16:59;10.02;;;1.98;;
31730;SDS011;18310;55.586;12.286;2022-10-16T15:20:03;6.57;;;1.40;;
31730;SDS011;18310;55.586;12.286;2022-10-16T15:23:12;7.50;;;1.63;;
31730;SDS011;18310;55.586;12.286;2022-10-16T15:26:20;11.88;;;2.03;;
31730;SDS011;18310;55.586;12.286;2022-10-16T15:32:27;9.67;;;1.60;;
31730;SDS011;18310;55.586;12.286;2022-10-16T15:35:30;7.43;;;2.00;;
31730;SDS011;18310;55.586;12.286;2022-10-16T15:38:34;7.32;;;2.33;;
31730;SDS011;18310;55.586;12.286;2022-10-16T15:41:40;5.80;;;1.58;;
31730;SDS011;18310;55.586;12.286;2022-10-16T15:44:44;8.60;;;2.20;;
31730;SDS011;18310;55.586;12.286;2022-10-16T15:47:48;10.63;;;2.20;;
31730;SDS011;18310;55.586;12.286;2022-10-16T15:50:55;7.32;;;2.17;;
31730;SDS011;18310;55.586;12.286;2022-10-16T15:54:00;11.48;;;2.25;;
31730;SDS011;18310;55.586;12.286;2022-10-16T15:57:06;9.30;;;1.80;;
31730;SDS011;18310;55.586;12.286;2022-10-16T16:00:11;7.10;;;2.15;;
31730;SDS011;18310;55.586;12.286;2022-10-16T16:03:21;7.13;;;1.50;;
31730;SDS011;18310;55.586;12.286;2022-10-16T16:06:25;8.68;;;2.38;;
31730;SDS011;18310;55.586;12.286;2022-10-16T16:09:30;12.27;;;2.50;;
31730;SDS011;18310;55.586;12.286;2022-10-16T16:12:34;10.05;;;1.95;;
31730;SDS011;18310;55.586;12.286;2022-10-16T16:15:39;8.13;;;1.90;;
31730;SDS011;18310;55.586;12.286;2022-10-16T16:18:44;8.90;;;2.20;;
31730;SDS011;18310;55.586;12.286;2022-10-16T16:21:47;11.32;;;2.20;;
31730;SDS011;18310;55.586;12.286;2022-10-16T16:24:53;11.02;;;1.95;;
31730;SDS011;18310;55.586;12.286;2022-10-16T16:27:56;10.25;;;1.52;;
31730;SDS011;18310;55.586;12.286;2022-10-16T16:34:05;9.77;;;1.77;;
31730;SDS011;18310;55.586;12.286;2022-10-16T16:37:09;7.18;;;1.85;;
31730;SDS011;18310;55.586;12.286;2022-10-16T16:40:14;7.85;;;2.00;;
31730;SDS011;18310;55.586;12.286;2022-10-16T16:43:17;7.97;;;1.45;;
31730;SDS011;18310;55.586;12.286;2022-10-16T16:46:21;5.22;;;1.70;;
31730;SDS011;18310;55.586;12.286;2022-10-16T16:49:24;10.55;;;2.05;;
31730;SDS011;18310;55.586;12.286;2022-10-16T16:52:29;13.10;;;2.28;;
31730;SDS011;18310;55.586;12.286;2022-10-16T16:55:35;9.75;;;2.15;;
31730;SDS011;18310;55.586;12.286;2022-10-16T16:58:39;14.57;;;2.50;;
31730;SDS011;18310;55.586;12.286;2022-10-16T17:01:43;8.65;;;1.60;;
31730;SDS011;18310;55.586;12.286;2022-10-16T17:04:48;13.80;;;2.17;;
31730;SDS011;18310;55.586;12.286;2022-10-16T17:07:51;11.40;;;2.40;;
31730;SDS011;18310;55.586;12.286;2022-10-16T17:10:58;9.68;;;1.95;;
31730;SDS011;18310;55.586;12.286;2022-10-16T17:14:02;10.88;;;1.88;;
31730;SDS011;18310;55.586;12.286;2022-10-16T17:17:07;7.88;;;1.80;;
31730;SDS011;18310;55.586;12.286;2022-10-16T17:20:11;11.68;;;1.98;;
31730;SDS011;18310;55.586;12.286;2022-10-16T17:23:15;17.98;;;2.10;;
31730;SDS011;18310;55.586;12.286;2022-10-16T17:26:23;10.07;;;2.33;;
31730;SDS011;18310;55.586;12.286;2022-10-16T17:29:27;8.38;;;1.90;;
31730;SDS011;18310;55.586;12.286;2022-10-16T17:32:31;12.75;;;1.85;;
31730;SDS011;18310;55.586;12.286;2022-10-16T17:35:36;15.00;;;2.40;;
31730;SDS011;18310;55.586;12.286;2022-10-16T17:38:40;10.40;;;2.33;;
31730;SDS011;18310;55.586;12.286;2022-10-16T17:41:50;12.07;;;2.92;;
31730;SDS011;18310;55.586;12.286;2022-10-16T17:44:54;8.40;;;2.35;;
31730;SDS011;18310;55.586;12.286;2022-10-16T17:48:00;11.82;;;2.47;;
31730;SDS011;18310;55.586;12.286;2022-10-16T17:51:04;16.25;;;2.55;;
31730;SDS011;18310;55.586;12.286;2022-10-16T17:54:09;13.23;;;2.38;;
31730;SDS011;18310;55.586;12.286;2022-10-16T17:57:20;8.20;;;1.80;;
31730;SDS011;18310;55.586;12.286;2022-10-16T18:00:23;11.38;;;2.45;;
31730;SDS011;18310;55.586;12.286;2022-10-16T18:03:27;17.65;;;2.67;;
31730;SDS011;18310;55.586;12.286;2022-10-16T18:06:31;13.02;;;2.47;;
31730;SDS011;18310;55.586;12.286;2022-10-16T18:09:35;9.10;;;1.90;;
31730;SDS011;18310;55.586;12.286;2022-10-16T18:13:01;5.82;;;1.98;;
31730;SDS011;18310;55.586;12.286;2022-10-16T18:16:06;10.88;;;2.40;;
31730;SDS011;18310;55.586;12.286;2022-10-16T18:19:18;12.00;;;2.42;;
31730;SDS011;18310;55.586;12.286;2022-10-16T18:22:23;15.15;;;1.90;;
31730;SDS011;18310;55.586;12.286;2022-10-16T18:25:32;15.30;;;2.03;;
31730;SDS011;18310;55.586;12.286;2022-10-16T18:28:38;9.43;;;1.80;;
31730;SDS011;18310;55.586;12.286;2022-10-16T18:31:44;10.10;;;2.22;;
31730;SDS011;18310;55.586;12.286;2022-10-16T18:34:50;9.27;;;3.25;;
31730;SDS011;18310;55.586;12.286;2022-10-16T18:37:54;8.82;;;3.55;;
31730;SDS011;18310;55.586;12.286;2022-10-16T18:41:00;13.55;;;2.45;;
31730;SDS011;18310;55.586;12.286;2022-10-16T18:44:07;12.93;;;2.50;;
31730;SDS011;18310;55.586;12.286;2022-10-16T18:47:13;16.02;;;2.60;;
31730;SDS011;18310;55.586;12.286;2022-10-16T18:50:18;11.25;;;2.55;;
31730;SDS011;18310;55.586;12.286;2022-10-16T18:53:22;7.10;;;2.20;;
31730;SDS011;18310;55.586;12.286;2022-10-16T18:56:25;17.95;;;2.78;;
31730;SDS011;18310;55.586;12.286;2022-10-16T18:59:34;8.13;;;2.08;;
31730;SDS011;18310;55.586;12.286;2022-10-16T19:02:38;15.52;;;2.47;;
31730;SDS011;18310;55.586;12.286;2022-10-16T19:05:44;7.47;;;1.58;;
31730;SDS011;18310;55.586;12.286;2022-10-16T19:08:47;15.97;;;2.77;;